createdAt,value
2022-09-29T00:01:26.903Z,97.13
2022-09-29T00:03:53.448Z,97.17
2022-09-29T00:06:19.999Z,97.16
2022-09-29T00:08:48.328Z,97.23
2022-09-29T00:11:17.077Z,97.05
2022-09-29T00:13:43.822Z,97.08
2022-09-29T00:16:10.956Z,97.31
2022-09-29T00:18:37.721Z,96.98
2022-09-29T00:21:06.022Z,97.08
2022-09-29T00:23:34.945Z,97.13
2022-09-29T00:26:06.780Z,97.02
2022-09-29T00:28:33.603Z,97.13
2022-09-29T00:31:01.862Z,97.05
2022-09-29T00:33:29.691Z,96.93
2022-09-29T00:35:57.484Z,96.94
2022-09-29T00:38:24.001Z,96.89
2022-09-29T00:40:50.638Z,96.97
2022-09-29T00:43:22.024Z,97.01
2022-09-29T00:45:49.062Z,97.12
2022-09-29T00:48:19.024Z,97.30
2022-09-29T00:50:50.450Z,97.08
2022-09-29T00:53:21.691Z,97.28
2022-09-29T00:55:52.762Z,97.32
2022-09-29T00:58:27.937Z,97.12
2022-09-29T01:00:54.692Z,97.29
2022-09-29T01:03:23.535Z,97.13
2022-09-29T01:05:54.375Z,96.84
2022-09-29T01:08:26.748Z,96.81
2022-09-29T01:10:53.777Z,96.74
2022-09-29T01:13:21.802Z,96.79
2022-09-29T01:15:48.353Z,96.83
2022-09-29T01:18:15.085Z,96.80
2022-09-29T01:20:50.997Z,96.70
2022-09-29T01:24:01.168Z,96.91
2022-09-29T01:26:55.694Z,96.78
2022-09-29T01:30:02.126Z,96.92
2022-09-29T01:32:40.365Z,96.85
2022-09-29T01:35:12.178Z,96.77
2022-09-29T01:37:53.724Z,96.52
2022-09-29T01:40:29.825Z,96.53
2022-09-29T01:43:05.196Z,96.94
2022-09-29T01:45:34.118Z,96.95
2022-09-29T01:48:05.383Z,96.77
2022-09-29T01:50:36.749Z,96.56
2022-09-29T01:53:09.033Z,96.68
2022-09-29T01:55:42.137Z,96.66
2022-09-29T01:58:13.351Z,96.51
2022-09-29T02:00:45.679Z,96.69
2022-09-29T02:03:19.612Z,96.52
2022-09-29T02:05:50.150Z,96.74
2022-09-29T02:08:20.413Z,96.52
2022-09-29T02:10:51.309Z,96.27
2022-09-29T02:13:20.667Z,96.49
2022-09-29T02:15:51.756Z,96.32
2022-09-29T02:18:23.324Z,96.19
2022-09-29T02:20:50.811Z,95.68
2022-09-29T02:23:17.820Z,95.40
2022-09-29T02:25:46.691Z,94.97
2022-09-29T02:28:13.840Z,95.28
2022-09-29T02:30:40.580Z,94.67
2022-09-29T02:33:18.132Z,94.83
2022-09-29T02:35:54.521Z,95.06
2022-09-29T02:38:30.203Z,95.02
2022-09-29T02:41:06.343Z,95.13
2022-09-29T02:43:53.934Z,95.23
2022-09-29T02:46:37.444Z,95.84
2022-09-29T02:49:25.722Z,95.80
2022-09-29T02:51:57.929Z,95.98
2022-09-29T02:54:39.107Z,95.86
2022-09-29T02:57:17.188Z,95.54
2022-09-29T02:59:52.031Z,95.48
2022-09-29T03:02:23.966Z,96.25
2022-09-29T03:04:50.405Z,96.17
2022-09-29T03:07:18.323Z,95.96
2022-09-29T03:09:44.874Z,95.39
2022-09-29T03:12:11.447Z,95.09
2022-09-29T03:14:38.004Z,94.91
2022-09-29T03:17:04.552Z,94.74
2022-09-29T03:19:31.083Z,94.17
2022-09-29T03:21:57.634Z,94.43
2022-09-29T03:24:25.542Z,94.56
2022-09-29T03:26:52.114Z,94.53
2022-09-29T03:29:18.664Z,94.78
2022-09-29T03:31:45.264Z,94.62
2022-09-29T03:34:11.878Z,94.80
2022-09-29T03:36:38.428Z,94.23
2022-09-29T03:39:05.049Z,94.01
2022-09-29T03:41:33.021Z,93.89
2022-09-29T03:43:59.704Z,94.06
2022-09-29T03:46:26.288Z,94.57
2022-09-29T03:48:53.304Z,94.39
2022-09-29T03:51:19.922Z,95.00
2022-09-29T03:53:46.459Z,95.60
2022-09-29T03:56:13.023Z,96.05
2022-09-29T03:58:40.936Z,96.48
2022-09-29T04:01:07.686Z,96.36
2022-09-29T04:03:34.369Z,96.02
2022-09-29T04:06:00.930Z,96.34
2022-09-29T04:08:27.509Z,96.47
2022-09-29T04:10:54.082Z,95.80
2022-09-29T04:13:20.628Z,95.84
2022-09-29T04:15:49.017Z,95.62
2022-09-29T04:18:16.377Z,95.40
2022-09-29T04:20:42.937Z,94.89
2022-09-29T04:23:09.488Z,94.61
2022-09-29T04:25:36.047Z,94.19
2022-09-29T04:28:03.359Z,94.56
2022-09-29T04:30:29.919Z,94.42
2022-09-29T04:32:57.788Z,94.20
2022-09-29T04:35:24.353Z,94.26
2022-09-29T04:37:54.872Z,94.21
2022-09-29T04:40:21.506Z,94.33
2022-09-29T04:42:48.057Z,94.00
2022-09-29T04:45:14.859Z,93.90
2022-09-29T04:47:41.536Z,93.42
2022-09-29T04:50:09.849Z,93.74
2022-09-29T04:52:36.772Z,93.98
2022-09-29T04:55:04.016Z,93.83
2022-09-29T04:57:30.577Z,93.72
2022-09-29T04:59:57.121Z,93.59
2022-09-29T05:02:23.715Z,93.65
2022-09-29T05:04:50.308Z,93.89
2022-09-29T05:07:18.221Z,94.67
2022-09-29T05:09:44.792Z,94.73
2022-09-29T05:12:11.323Z,95.13
2022-09-29T05:14:37.863Z,94.90
2022-09-29T05:17:04.438Z,94.72
2022-09-29T05:19:31.032Z,94.76
2022-09-29T05:21:57.712Z,94.48
2022-09-29T05:24:25.602Z,94.34
2022-09-29T05:26:57.499Z,94.61
2022-09-29T05:29:25.068Z,95.06
2022-09-29T05:31:51.721Z,94.95
2022-09-29T05:34:18.358Z,95.24
2022-09-29T05:36:45.098Z,95.66
2022-09-29T05:39:11.696Z,95.95
2022-09-29T05:41:39.610Z,96.20
2022-09-29T05:44:06.387Z,96.22
2022-09-29T05:46:32.943Z,95.92
2022-09-29T05:48:59.503Z,95.99
2022-09-29T05:51:26.296Z,96.09
2022-09-29T05:53:53.963Z,96.05
2022-09-29T05:56:22.584Z,95.90
2022-09-29T05:58:51.174Z,96.14
2022-09-29T06:01:19.400Z,96.29
2022-09-29T06:03:46.017Z,96.32
2022-09-29T06:06:14.524Z,96.39
2022-09-29T06:08:41.639Z,96.30
2022-09-29T06:11:10.091Z,96.00
2022-09-29T06:13:38.159Z,96.24
2022-09-29T06:16:06.598Z,96.14
2022-09-29T06:18:33.203Z,96.74
2022-09-29T06:21:03.683Z,96.72
2022-09-29T06:23:30.195Z,96.53
2022-09-29T06:25:57.796Z,96.02
2022-09-29T06:28:24.672Z,95.96
2022-09-29T06:30:51.526Z,96.95
2022-09-29T06:33:19.508Z,96.83
2022-09-29T06:35:46.839Z,97.16
2022-09-29T06:38:13.416Z,97.28
2022-09-29T06:40:40.050Z,97.32
2022-09-29T06:43:06.599Z,97.04
2022-09-29T06:45:33.184Z,97.31
2022-09-29T06:48:00.132Z,98.47
2022-09-29T06:50:28.077Z,98.47
2022-09-29T06:53:03.470Z,98.15
2022-09-29T06:55:30.868Z,97.70
2022-09-29T06:58:01.422Z,96.96
2022-09-29T07:00:30.205Z,96.58
2022-09-29T07:02:56.715Z,95.72
2022-09-29T07:05:23.252Z,95.20
2022-09-29T07:07:53.205Z,93.99
2022-09-29T07:10:21.243Z,93.55
2022-09-29T07:12:47.810Z,93.81
2022-09-29T07:15:14.561Z,93.06
2022-09-29T07:17:41.131Z,92.05
2022-09-29T07:20:08.372Z,89.32
2022-09-29T07:22:34.906Z,89.91
2022-09-29T07:25:02.904Z,91.83
2022-09-29T07:27:29.437Z,91.34
2022-09-29T07:30:02.844Z,91.50
2022-09-29T07:32:30.781Z,92.16
2022-09-29T07:34:57.371Z,91.03
2022-09-29T07:37:23.928Z,91.98
2022-09-29T07:39:50.479Z,92.49
2022-09-29T07:42:18.385Z,92.84
2022-09-29T07:44:47.941Z,91.67
2022-09-29T07:47:18.062Z,91.07
2022-09-29T07:49:44.615Z,90.28
2022-09-29T07:52:12.931Z,90.76
2022-09-29T07:54:39.638Z,89.75
2022-09-29T07:57:06.184Z,90.01
2022-09-29T07:59:34.182Z,89.92
2022-09-29T08:02:00.762Z,89.98
2022-09-29T08:04:27.348Z,90.04
2022-09-29T08:06:53.879Z,86.87
2022-09-29T08:09:21.899Z,87.80
2022-09-29T08:11:56.868Z,87.68
2022-09-29T08:14:26.367Z,86.89
2022-09-29T08:16:56.356Z,86.28
2022-09-29T08:19:23.172Z,86.81
2022-09-29T08:21:49.746Z,86.92
2022-09-29T08:24:16.847Z,85.75
2022-09-29T08:26:44.556Z,85.28
2022-09-29T08:29:16.002Z,84.79
2022-09-29T08:31:43.826Z,85.18
2022-09-29T08:34:11.835Z,83.88
2022-09-29T08:36:38.359Z,85.13
2022-09-29T08:39:04.896Z,83.57
2022-09-29T08:41:44.420Z,84.90
2022-09-29T08:44:34.387Z,83.89
2022-09-29T08:47:12.565Z,85.05
2022-09-29T08:49:43.946Z,83.75
2022-09-29T08:52:17.117Z,83.83
2022-09-29T08:54:48.656Z,82.71
2022-09-29T08:57:19.129Z,81.65
2022-09-29T08:59:51.620Z,82.51
2022-09-29T09:03:00.998Z,81.54
2022-09-29T09:06:03.955Z,81.87
2022-09-29T09:08:47.638Z,81.69
2022-09-29T09:11:32.200Z,81.04
2022-09-29T09:14:13.680Z,82.84
2022-09-29T09:16:49.031Z,81.44
2022-09-29T09:19:42.400Z,81.61
2022-09-29T09:22:20.459Z,81.69
2022-09-29T09:24:51.248Z,81.89
2022-09-29T09:27:24.324Z,80.46
2022-09-29T09:30:00.340Z,80.88
2022-09-29T09:32:30.305Z,79.53
2022-09-29T09:35:16.382Z,80.02
2022-09-29T09:37:50.730Z,79.69
2022-09-29T09:40:20.868Z,79.96
2022-09-29T09:42:52.474Z,79.61
2022-09-29T09:45:27.053Z,80.52
2022-09-29T09:47:59.450Z,79.92
2022-09-29T09:50:26.587Z,78.83
2022-09-29T09:53:00.480Z,78.50
2022-09-29T09:55:27.867Z,77.58
2022-09-29T09:58:07.434Z,76.71
2022-09-29T10:00:39.132Z,76.39
2022-09-29T10:03:08.366Z,74.98
2022-09-29T10:05:37.773Z,74.32
2022-09-29T10:08:07.182Z,74.29
2022-09-29T10:10:33.843Z,73.87
2022-09-29T10:13:03.868Z,71.34
2022-09-29T10:15:36.233Z,71.40
2022-09-29T10:18:10.805Z,72.93
2022-09-29T10:20:38.737Z,72.48
2022-09-29T10:23:25.319Z,71.33
2022-09-29T10:25:54.732Z,73.21
2022-09-29T10:28:22.972Z,72.05
2022-09-29T10:30:49.857Z,71.40
2022-09-29T10:33:20.482Z,72.62
2022-09-29T10:35:48.434Z,73.30
2022-09-29T10:38:24.016Z,72.01
2022-09-29T10:40:54.554Z,72.90
2022-09-29T10:43:24.635Z,74.33
2022-09-29T10:45:51.418Z,70.75
2022-09-29T10:48:19.152Z,70.94
2022-09-29T10:50:51.265Z,69.94
2022-09-29T10:53:28.503Z,72.07
2022-09-29T10:55:57.225Z,73.30
2022-09-29T10:58:45.383Z,72.29
2022-09-29T11:01:16.714Z,71.25
2022-09-29T11:03:49.200Z,72.33
2022-09-29T11:06:16.971Z,70.60
2022-09-29T11:09:06.780Z,69.46
2022-09-29T11:11:36.244Z,67.96
2022-09-29T11:14:03.423Z,68.87
2022-09-29T11:16:32.824Z,67.85
2022-09-29T11:19:04.971Z,69.34
2022-09-29T11:22:10.312Z,70.67
2022-09-29T11:24:53.820Z,70.90
2022-09-29T11:27:33.184Z,71.80
2022-09-29T11:30:06.409Z,70.84
2022-09-29T11:32:47.370Z,68.30
2022-09-29T11:35:25.854Z,68.14
2022-09-29T11:38:08.283Z,66.92
2022-09-29T11:40:45.449Z,67.43
2022-09-29T11:43:27.571Z,68.63
2022-09-29T11:46:04.472Z,69.94
2022-09-29T11:49:05.560Z,69.60
2022-09-29T11:51:49.478Z,70.08
2022-09-29T11:54:38.170Z,69.20
2022-09-29T11:57:18.636Z,68.56
2022-09-29T12:00:00.724Z,67.11
2022-09-29T12:02:57.101Z,67.64
2022-09-29T12:05:28.802Z,68.74
2022-09-29T12:08:10.601Z,69.33
2022-09-29T12:10:51.613Z,68.95
2022-09-29T12:13:36.585Z,69.88
2022-09-29T12:16:09.116Z,69.79
2022-09-29T12:18:40.580Z,71.54
2022-09-29T12:21:11.872Z,70.65
2022-09-29T12:23:43.963Z,70.78
2022-09-29T12:26:15.224Z,71.34
2022-09-29T12:28:49.733Z,74.06
2022-09-29T12:31:23.379Z,71.02
2022-09-29T12:33:56.325Z,71.76
2022-09-29T12:36:32.962Z,74.14
2022-09-29T12:39:10.041Z,72.89
2022-09-29T12:41:40.289Z,71.21
2022-09-29T12:44:18.191Z,70.53
2022-09-29T12:46:49.979Z,69.34
2022-09-29T12:49:21.207Z,70.33
2022-09-29T12:51:49.544Z,69.90
2022-09-29T12:54:20.696Z,68.60
2022-09-29T12:56:54.243Z,66.93
2022-09-29T12:59:32.353Z,67.13
2022-09-29T13:02:01.265Z,67.52
2022-09-29T13:04:48.625Z,69.06
2022-09-29T13:07:41.755Z,69.52
2022-09-29T13:10:35.677Z,69.56
2022-09-29T13:13:29.940Z,68.09
2022-09-29T13:16:06.031Z,69.59
2022-09-29T13:19:00.216Z,68.67
2022-09-29T13:21:41.782Z,68.82
2022-09-29T13:24:33.557Z,70.23
2022-09-29T13:27:25.198Z,68.98
2022-09-29T13:29:56.275Z,68.42
2022-09-29T13:32:24.338Z,67.24
2022-09-29T13:34:55.320Z,65.93
2022-09-29T13:37:24.807Z,65.17
2022-09-29T13:40:01.504Z,64.59
2022-09-29T13:42:49.644Z,67.99
2022-09-29T13:45:32.488Z,65.43
2022-09-29T13:48:01.657Z,64.22
2022-09-29T13:50:42.638Z,67.15
2022-09-29T13:53:32.372Z,69.04
2022-09-29T13:56:11.196Z,66.34
2022-09-29T13:58:58.284Z,63.37
2022-09-29T14:01:34.363Z,62.72
2022-09-29T14:04:45.463Z,63.18
2022-09-29T14:07:34.148Z,63.17
2022-09-29T14:10:13.673Z,65.46
2022-09-29T14:12:41.642Z,65.04
2022-09-29T14:15:12.923Z,65.29
2022-09-29T14:17:46.031Z,65.13
2022-09-29T14:20:18.930Z,65.20
2022-09-29T14:22:56.119Z,65.54
2022-09-29T14:25:52.447Z,66.92
2022-09-29T14:28:23.894Z,66.54
2022-09-29T14:30:54.137Z,68.39
2022-09-29T14:33:24.974Z,68.03
2022-09-29T14:36:01.940Z,68.68
2022-09-29T14:38:33.553Z,68.34
2022-09-29T14:41:02.931Z,69.36
2022-09-29T14:43:40.283Z,68.57
2022-09-29T14:46:39.574Z,70.09
2022-09-29T14:49:38.868Z,70.43
2022-09-29T14:52:16.115Z,68.90
2022-09-29T14:54:56.904Z,67.78
2022-09-29T14:57:34.438Z,67.56
2022-09-29T15:00:11.175Z,66.47
2022-09-29T15:02:42.614Z,66.79
2022-09-29T15:05:14.387Z,67.64
2022-09-29T15:07:42.155Z,67.47
2022-09-29T15:10:22.571Z,67.24
2022-09-29T15:12:49.154Z,67.04
2022-09-29T15:15:29.544Z,67.03
2022-09-29T15:18:05.911Z,67.56
2022-09-29T15:20:33.913Z,67.27
2022-09-29T15:23:17.620Z,66.85
2022-09-29T15:25:46.454Z,69.88
2022-09-29T15:28:16.945Z,71.99
2022-09-29T15:30:44.430Z,71.50
2022-09-29T15:33:20.923Z,71.16
2022-09-29T15:35:51.446Z,70.41
2022-09-29T15:38:32.362Z,69.36
2022-09-29T15:41:03.123Z,69.75
2022-09-29T15:43:38.622Z,70.29
2022-09-29T15:46:17.832Z,71.11
2022-09-29T15:49:06.243Z,73.44
2022-09-29T15:51:32.883Z,73.39
2022-09-29T15:54:01.001Z,74.68
2022-09-29T15:56:31.597Z,77.11
2022-09-29T15:58:58.590Z,76.11
2022-09-29T16:01:25.378Z,76.76
2022-09-29T16:03:55.269Z,77.49
2022-09-29T16:06:27.764Z,78.73
2022-09-29T16:08:57.153Z,79.06
2022-09-29T16:11:26.812Z,79.20
2022-09-29T16:14:00.132Z,82.19
2022-09-29T16:16:31.779Z,83.66
2022-09-29T16:19:03.432Z,83.31
2022-09-29T16:21:35.305Z,83.39
2022-09-29T16:24:19.796Z,81.74
2022-09-29T16:26:48.347Z,82.88
2022-09-29T16:29:32.145Z,84.89
2022-09-29T16:32:00.008Z,84.83
2022-09-29T16:34:32.972Z,84.94
2022-09-29T16:37:02.498Z,85.12
2022-09-29T16:39:31.156Z,85.67
2022-09-29T16:41:59.880Z,86.23
2022-09-29T16:44:30.451Z,85.97
2022-09-29T16:47:00.352Z,86.73
2022-09-29T16:49:29.634Z,86.78
2022-09-29T16:51:58.940Z,86.44
2022-09-29T16:54:28.131Z,86.37
2022-09-29T16:57:18.021Z,87.82
2022-09-29T16:59:46.171Z,87.85
2022-09-29T17:02:13.563Z,87.29
2022-09-29T17:04:40.399Z,87.91
2022-09-29T17:07:12.478Z,88.26
2022-09-29T17:09:39.172Z,87.74
2022-09-29T17:12:05.738Z,87.94
2022-09-29T17:14:32.267Z,87.81
2022-09-29T17:17:00.227Z,88.11
2022-09-29T17:19:26.777Z,88.14
2022-09-29T17:21:54.770Z,88.33
2022-09-29T17:24:21.715Z,88.32
2022-09-29T17:26:48.681Z,87.88
2022-09-29T17:29:15.229Z,87.77
2022-09-29T17:31:41.775Z,87.88
2022-09-29T17:34:09.649Z,88.03
2022-09-29T17:36:38.359Z,88.22
2022-09-29T17:39:04.907Z,88.48
2022-09-29T17:41:31.474Z,88.42
2022-09-29T17:43:58.229Z,88.60
2022-09-29T17:46:24.932Z,88.45
2022-09-29T17:48:51.542Z,88.52
2022-09-29T17:51:19.478Z,88.71
2022-09-29T17:53:46.503Z,88.72
2022-09-29T17:56:19.838Z,89.05
2022-09-29T17:58:46.404Z,89.22
2022-09-29T18:01:13.134Z,89.20
2022-09-29T18:03:40.197Z,89.23
2022-09-29T18:06:06.910Z,89.55
2022-09-29T18:08:34.801Z,89.89
2022-09-29T18:11:01.769Z,89.63
2022-09-29T18:13:29.986Z,89.83
2022-09-29T18:15:57.898Z,89.85
2022-09-29T18:18:25.120Z,90.05
2022-09-29T18:20:51.695Z,90.12
2022-09-29T18:23:19.277Z,90.41
2022-09-29T18:25:49.282Z,90.05
2022-09-29T18:28:16.925Z,89.96
2022-09-29T18:30:46.304Z,90.27
2022-09-29T18:33:14.664Z,90.01
2022-09-29T18:35:43.315Z,90.38
2022-09-29T18:38:10.057Z,90.12
2022-09-29T18:40:38.060Z,90.19
2022-09-29T18:43:06.482Z,90.46
2022-09-29T18:45:37.385Z,90.53
2022-09-29T18:48:06.483Z,90.76
2022-09-29T18:50:35.099Z,90.64
2022-09-29T18:53:01.679Z,91.20
2022-09-29T18:55:29.947Z,91.33
2022-09-29T18:57:58.091Z,91.18
2022-09-29T19:00:27.885Z,91.34
2022-09-29T19:02:54.576Z,91.34
2022-09-29T19:05:23.681Z,91.55
2022-09-29T19:07:54.069Z,91.83
2022-09-29T19:10:21.361Z,91.90
2022-09-29T19:12:47.885Z,92.54
2022-09-29T19:15:16.185Z,92.61
2022-09-29T19:17:44.848Z,92.52
2022-09-29T19:20:12.571Z,92.34
2022-09-29T19:22:39.548Z,92.50
2022-09-29T19:25:06.817Z,92.48
2022-09-29T19:27:33.396Z,92.62
2022-09-29T19:30:03.210Z,92.70
2022-09-29T19:32:30.285Z,92.59
2022-09-29T19:34:58.252Z,92.63
2022-09-29T19:37:25.093Z,92.66
2022-09-29T19:39:51.774Z,92.61
2022-09-29T19:42:18.822Z,92.85
2022-09-29T19:44:45.393Z,92.98
2022-09-29T19:47:12.012Z,92.91
2022-09-29T19:49:38.541Z,92.63
2022-09-29T19:52:06.608Z,92.60
2022-09-29T19:54:35.938Z,92.73
2022-09-29T19:57:04.699Z,92.66
2022-09-29T19:59:33.385Z,92.81
2022-09-29T20:02:01.307Z,92.89
2022-09-29T20:04:30.933Z,93.05
2022-09-29T20:06:57.956Z,93.01
2022-09-29T20:09:26.631Z,93.10
2022-09-29T20:11:53.918Z,93.64
2022-09-29T20:14:22.670Z,93.71
2022-09-29T20:16:51.312Z,93.66
2022-09-29T20:19:20.488Z,93.57
2022-09-29T20:21:48.596Z,93.82
2022-09-29T20:24:16.879Z,94.05
2022-09-29T20:26:46.494Z,93.54
2022-09-29T20:29:14.701Z,93.99
2022-09-29T20:31:41.519Z,94.16
2022-09-29T20:34:11.096Z,93.93
2022-09-29T20:36:37.862Z,93.61
2022-09-29T20:39:04.561Z,93.54
2022-09-29T20:41:31.157Z,93.70
2022-09-29T20:43:59.051Z,93.95
2022-09-29T20:46:27.774Z,93.79
2022-09-29T20:48:56.348Z,93.72
2022-09-29T20:51:24.725Z,93.62
2022-09-29T20:53:53.188Z,93.45
2022-09-29T20:56:19.956Z,93.41
2022-09-29T20:58:49.161Z,93.68
2022-09-29T21:01:19.275Z,93.72
2022-09-29T21:03:48.751Z,93.68
2022-09-29T21:06:15.490Z,93.75
2022-09-29T21:08:42.041Z,93.82
2022-09-29T21:11:08.829Z,93.93
2022-09-29T21:13:35.477Z,93.81
2022-09-29T21:16:02.551Z,94.28
2022-09-29T21:18:31.220Z,94.41
2022-09-29T21:20:59.451Z,94.41
2022-09-29T21:23:27.031Z,94.57
2022-09-29T21:26:01.458Z,94.64
2022-09-29T21:28:28.210Z,94.54
2022-09-29T21:31:02.497Z,94.41
2022-09-29T21:33:30.969Z,94.42
2022-09-29T21:35:58.159Z,94.45
2022-09-29T21:38:24.792Z,94.36
2022-09-29T21:40:51.315Z,94.59
2022-09-29T21:43:17.836Z,94.70
2022-09-29T21:45:44.374Z,94.82
2022-09-29T21:48:10.891Z,94.88
2022-09-29T21:50:38.802Z,95.06
2022-09-29T21:53:05.334Z,94.93
2022-09-29T21:55:32.062Z,95.15
2022-09-29T21:57:58.580Z,94.83
2022-09-29T22:00:25.169Z,94.78
2022-09-29T22:02:51.772Z,94.81
2022-09-29T22:05:18.359Z,94.87
2022-09-29T22:07:46.382Z,94.81
2022-09-29T22:10:12.948Z,94.82
2022-09-29T22:12:39.565Z,94.84
2022-09-29T22:15:07.513Z,94.80
2022-09-29T22:17:34.049Z,94.76
2022-09-29T22:20:01.063Z,94.74
2022-09-29T22:22:27.592Z,95.11
2022-09-29T22:24:55.511Z,95.75
2022-09-29T22:27:22.506Z,95.88
2022-09-29T22:29:49.073Z,96.01
2022-09-29T22:32:15.587Z,95.91
2022-09-29T22:34:42.149Z,95.91
2022-09-29T22:37:08.670Z,95.50
2022-09-29T22:39:35.217Z,95.25
2022-09-29T22:42:03.364Z,95.17
2022-09-29T22:44:29.922Z,95.22
2022-09-29T22:46:56.562Z,95.04
2022-09-29T22:49:23.242Z,94.74
2022-09-29T22:51:49.883Z,94.66
2022-09-29T22:54:16.447Z,94.55
2022-09-29T22:56:42.985Z,94.73
2022-09-29T22:59:10.943Z,94.53
2022-09-29T23:01:37.597Z,94.54
2022-09-29T23:04:04.431Z,94.63
2022-09-29T23:06:31.256Z,94.72
2022-09-29T23:08:57.933Z,94.88
2022-09-29T23:11:24.545Z,95.06
2022-09-29T23:13:52.056Z,94.70
2022-09-29T23:16:20.022Z,94.70
2022-09-29T23:18:46.820Z,94.72
2022-09-29T23:21:15.041Z,94.86
2022-09-29T23:23:41.689Z,95.17
2022-09-29T23:26:08.259Z,95.28
2022-09-29T23:28:34.817Z,95.15
2022-09-29T23:31:04.914Z,95.27
2022-09-29T23:33:33.141Z,95.15
2022-09-29T23:36:08.211Z,94.96
2022-09-29T23:38:34.771Z,94.97
2022-09-29T23:41:01.444Z,94.81
2022-09-29T23:43:27.986Z,94.29
2022-09-29T23:45:54.662Z,94.65
2022-09-29T23:48:21.231Z,95.10
2022-09-29T23:50:49.149Z,95.48
2022-09-29T23:53:15.667Z,95.32
2022-09-29T23:55:42.269Z,95.45
2022-09-29T23:58:08.802Z,95.54
